Time;durP1;ratioP1;P1;durP2;ratioP2;P2;SDS_P1;SDS_P2;PMS_P1;PMS_P2;Temp;Humidity;BMP_temperature;BMP_pressure;BME280_temperature;BME280_humidity;BME280_pressure;Samples;Min_cycle;Max_cycle;Signal;HPM_P1;HPM_P2
2024/03/22 00:00:59;;;;;;;20.08;19.20;;;;;;;;;;4196805;28;20037;-64
2024/03/22 00:02:59;;;;;;;21.83;21.00;;;;;;;;;;4181438;28;20493;-65
2024/03/22 00:05:00;;;;;;;21.88;21.10;;;;;;;;;;4198356;28;20558;-65
2024/03/22 00:07:01;;;;;;;20.80;20.25;;;;;;;;;;4198333;28;20119;-65
2024/03/22 00:09:01;;;;;;;17.88;17.23;;;;;;;;;;4198182;28;20395;-65
2024/03/22 00:11:02;;;;;;;17.95;17.48;;;;;;;;;;4197912;28;20052;-65
2024/03/22 00:13:02;;;;;;;18.08;17.63;;;;;;;;;;4198109;28;20045;-65
2024/03/22 00:15:03;;;;;;;17.17;16.80;;;;;;;;;;4197967;28;20053;-65
2024/03/22 00:17:04;;;;;;;17.63;17.02;;;;;;;;;;4197927;28;20036;-65
2024/03/22 00:19:04;;;;;;;17.90;17.40;;;;;;;;;;4198239;28;20044;-65
2024/03/22 00:21:05;;;;;;;17.65;17.33;;;;;;;;;;4197879;28;20085;-65
2024/03/22 00:23:05;;;;;;;20.23;19.50;;;;;;;;;;4197591;28;20123;-65
2024/03/22 00:25:06;;;;;;;17.33;16.92;;;;;;;;;;4196955;28;20412;-65
2024/03/22 00:27:07;;;;;;;18.17;17.67;;;;;;;;;;4196249;28;20044;-65
2024/03/22 00:29:08;;;;;;;19.63;18.73;;;;;;;;;;4196603;28;20037;-65
2024/03/22 00:31:08;;;;;;;17.00;16.60;;;;;;;;;;4196834;28;20044;-65
2024/03/22 00:33:09;;;;;;;16.27;15.98;;;;;;;;;;4197022;28;20043;-65
2024/03/22 00:35:10;;;;;;;18.48;17.88;;;;;;;;;;4196394;28;20075;-65
2024/03/22 00:37:10;;;;;;;15.25;14.85;;;;;;;;;;4197159;28;20051;-65
2024/03/22 00:39:11;;;;;;;18.27;17.52;;;;;;;;;;4196947;28;20040;-64
2024/03/22 00:41:12;;;;;;;18.15;17.85;;;;;;;;;;4196374;28;20040;-66
2024/03/22 00:43:13;;;;;;;17.52;17.23;;;;;;;;;;4197613;28;20044;-66
2024/03/22 00:45:13;;;;;;;17.00;16.70;;;;;;;;;;4197632;28;20040;-65
2024/03/22 00:47:14;;;;;;;13.88;13.52;;;;;;;;;;4197590;28;20044;-65
2024/03/22 00:49:14;;;;;;;14.90;14.70;;;;;;;;;;4197537;28;20551;-65
2024/03/22 00:51:15;;;;;;;15.70;15.40;;;;;;;;;;4180880;28;20091;-65
2024/03/22 00:53:16;;;;;;;15.98;15.68;;;;;;;;;;4197418;28;20042;-65
2024/03/22 00:55:17;;;;;;;16.05;15.77;;;;;;;;;;4197687;28;20044;-66
2024/03/22 00:57:18;;;;;;;13.73;13.52;;;;;;;;;;4197283;28;20040;-65
2024/03/22 00:59:18;;;;;;;16.38;16.08;;;;;;;;;;4197392;28;20041;-65
2024/03/22 01:01:19;;;;;;;15.52;15.32;;;;;;;;;;4197240;28;20037;-65
2024/03/22 01:03:19;;;;;;;17.05;16.65;;;;;;;;;;4196997;28;20051;-65
2024/03/22 01:05:20;;;;;;;17.92;17.63;;;;;;;;;;4180778;28;20049;-66
2024/03/22 01:07:20;;;;;;;17.95;17.70;;;;;;;;;;4197184;28;20045;-65
2024/03/22 01:09:21;;;;;;;18.20;17.92;;;;;;;;;;4197151;28;20037;-65
2024/03/22 01:11:22;;;;;;;23.00;22.33;;;;;;;;;;4197060;28;20434;-65
2024/03/22 01:13:22;;;;;;;25.50;24.73;;;;;;;;;;4197341;28;20559;-65
2024/03/22 01:15:23;;;;;;;22.00;21.48;;;;;;;;;;4197249;28;20467;-65
2024/03/22 01:17:24;;;;;;;22.70;21.98;;;;;;;;;;4197079;28;20580;-66
2024/03/22 01:19:24;;;;;;;21.95;21.55;;;;;;;;;;4196862;28;20420;-65
2024/03/22 01:21:25;;;;;;;22.58;22.17;;;;;;;;;;4196993;28;20520;-65
2024/03/22 01:23:26;;;;;;;21.40;20.63;;;;;;;;;;4196964;28;20144;-65
2024/03/22 01:25:27;;;;;;;19.63;19.33;;;;;;;;;;4196885;28;20040;-65
2024/03/22 01:27:27;;;;;;;17.13;16.92;;;;;;;;;;4196878;28;20037;-65
2024/03/22 01:29:31;;;;;;;16.83;16.63;;;;;;;;;;4196572;28;20432;-65
2024/03/22 01:31:32;;;;;;;17.92;17.42;;;;;;;;;;4196955;28;20044;-65
2024/03/22 01:33:32;;;;;;;17.65;17.35;;;;;;;;;;4196983;28;20047;-65
2024/03/22 01:35:33;;;;;;;16.85;16.33;;;;;;;;;;4196655;28;20047;-65
2024/03/22 01:37:33;;;;;;;17.23;16.83;;;;;;;;;;4196618;28;20044;-65
2024/03/22 01:39:34;;;;;;;16.70;16.40;;;;;;;;;;4196792;28;20177;-63
2024/03/22 01:41:34;;;;;;;16.30;16.00;;;;;;;;;;4196437;28;20072;-62
2024/03/22 01:43:35;;;;;;;18.60;18.33;;;;;;;;;;4180094;28;20037;-63
2024/03/22 01:45:36;;;;;;;19.38;18.92;;;;;;;;;;4195906;28;20036;-63
2024/03/22 01:47:36;;;;;;;20.38;19.98;;;;;;;;;;4196282;28;20142;-62
2024/03/22 01:49:37;;;;;;;19.95;19.55;;;;;;;;;;4196455;28;20059;-64
2024/03/22 01:51:38;;;;;;;20.20;19.75;;;;;;;;;;4196504;28;20044;-62
2024/03/22 01:53:38;;;;;;;18.30;18.00;;;;;;;;;;4196333;28;20516;-62
2024/03/22 01:55:39;;;;;;;21.77;19.70;;;;;;;;;;4196463;28;20504;-63
2024/03/22 01:57:40;;;;;;;18.33;17.92;;;;;;;;;;4178958;28;20532;-62
2024/03/22 01:59:41;;;;;;;20.27;19.88;;;;;;;;;;4196238;28;20052;-63
2024/03/22 02:01:41;;;;;;;22.20;21.70;;;;;;;;;;4196322;28;20118;-63
2024/03/22 02:03:42;;;;;;;22.58;21.50;;;;;;;;;;4224859;22;20053;-76
2024/03/22 02:05:43;;;;;;;23.27;22.05;;;;;;;;;;4212794;28;20048;-79
2024/03/22 02:07:44;;;;;;;23.05;21.30;;;;;;;;;;4213665;28;20047;-77
2024/03/22 02:09:44;;;;;;;22.95;21.75;;;;;;;;;;4213248;28;20043;-83
2024/03/22 02:11:45;;;;;;;23.75;23.15;;;;;;;;;;4196711;28;20040;-79
2024/03/22 02:13:46;;;;;;;20.45;20.08;;;;;;;;;;4213665;28;20593;-80
2024/03/22 02:15:46;;;;;;;24.23;22.65;;;;;;;;;;4213246;28;20551;-80
2024/03/22 02:17:47;;;;;;;25.70;23.45;;;;;;;;;;4246961;27;20046;-81
2024/03/22 02:19:47;;;;;;;23.83;21.98;;;;;;;;;;4213246;28;20096;-82
2024/03/22 02:21:48;;;;;;;22.05;21.55;;;;;;;;;;4214094;28;20040;-78
2024/03/22 02:23:48;;;;;;;24.75;23.90;;;;;;;;;;4212633;28;20054;-80
2024/03/22 02:25:49;;;;;;;25.35;24.48;;;;;;;;;;4218780;28;20044;-81
2024/03/22 02:27:50;;;;;;;23.35;22.33;;;;;;;;;;4257878;27;20077;-80
2024/03/22 02:29:51;;;;;;;21.67;21.02;;;;;;;;;;4228363;28;20039;-79
2024/03/22 02:31:51;;;;;;;20.33;19.92;;;;;;;;;;4228469;28;20040;-79
2024/03/22 02:33:52;;;;;;;21.67;21.08;;;;;;;;;;4227531;28;20433;-79
2024/03/22 02:35:52;;;;;;;22.58;22.08;;;;;;;;;;4228103;28;20101;-80
2024/03/22 02:37:53;;;;;;;22.05;21.45;;;;;;;;;;4228337;28;20048;-79
2024/03/22 02:39:53;;;;;;;24.55;23.65;;;;;;;;;;4228411;28;20031;-80
2024/03/22 02:41:54;;;;;;;23.20;22.60;;;;;;;;;;4228383;28;20119;-79
2024/03/22 02:43:55;;;;;;;24.77;23.33;;;;;;;;;;4228473;28;20032;-79
2024/03/22 02:45:55;;;;;;;30.52;23.80;;;;;;;;;;4230120;28;20032;-82
2024/03/22 02:47:56;;;;;;;54.70;26.85;;;;;;;;;;4229856;28;20058;-79
2024/03/22 02:49:57;;;;;;;27.60;24.20;;;;;;;;;;4215707;28;20121;-81
2024/03/22 02:51:57;;;;;;;23.23;22.33;;;;;;;;;;4212069;28;20086;-80
2024/03/22 02:53:58;;;;;;;22.33;21.63;;;;;;;;;;4246639;28;20082;-81
2024/03/22 02:56:01;;;;;;;76.50;26.17;;;;;;;;;;4213071;28;20036;-83
2024/03/22 02:58:02;;;;;;;25.27;23.73;;;;;;;;;;4216668;28;20118;-78
2024/03/22 03:00:04;;;;;;;24.33;23.50;;;;;;;;;;4218377;28;20133;-80
2024/03/22 03:02:05;;;;;;;25.85;24.35;;;;;;;;;;4218602;28;20036;-81
2024/03/22 03:04:06;;;;;;;25.10;23.63;;;;;;;;;;4230793;28;20055;-79
2024/03/22 03:06:06;;;;;;;28.08;26.17;;;;;;;;;;4235267;28;20209;-78
2024/03/22 03:08:07;;;;;;;28.15;25.13;;;;;;;;;;4235255;28;20084;-81
2024/03/22 03:10:08;;;;;;;26.20;24.77;;;;;;;;;;4235157;28;20170;-68
2024/03/22 03:12:08;;;;;;;26.35;25.50;;;;;;;;;;4234970;28;20403;-67
2024/03/22 03:14:09;;;;;;;29.92;25.98;;;;;;;;;;4234946;28;20495;-68
2024/03/22 03:16:09;;;;;;;24.60;23.80;;;;;;;;;;4234894;28;20040;-67
2024/03/22 03:18:10;;;;;;;45.38;23.95;;;;;;;;;;4234930;28;20152;-68
2024/03/22 03:20:13;;;;;;;55.35;24.55;;;;;;;;;;4234822;28;20181;-68
2024/03/22 03:22:13;;;;;;;34.08;22.58;;;;;;;;;;4234747;28;20275;-67
2024/03/22 03:24:14;;;;;;;23.50;22.35;;;;;;;;;;4234923;28;20447;-67
2024/03/22 03:26:15;;;;;;;24.65;23.48;;;;;;;;;;4234877;28;20497;-67
2024/03/22 03:28:15;;;;;;;27.50;24.00;;;;;;;;;;4235014;28;20036;-67
2024/03/22 03:30:16;;;;;;;42.40;23.65;;;;;;;;;;4234513;28;20062;-67
2024/03/22 03:32:16;;;;;;;55.15;23.92;;;;;;;;;;4234827;28;20105;-67
2024/03/22 03:34:17;;;;;;;28.27;25.85;;;;;;;;;;4234851;28;20051;-67
2024/03/22 03:36:18;;;;;;;24.10;21.67;;;;;;;;;;4234810;28;20036;-67
2024/03/22 03:38:18;;;;;;;50.75;23.95;;;;;;;;;;4234761;28;20042;-67
2024/03/22 03:40:19;;;;;;;26.23;25.52;;;;;;;;;;4235010;28;20088;-67
2024/03/22 03:42:19;;;;;;;105.15;24.13;;;;;;;;;;4234684;28;20035;-68
2024/03/22 03:44:20;;;;;;;40.80;26.00;;;;;;;;;;4234654;28;20039;-67
2024/03/22 03:46:20;;;;;;;54.80;25.50;;;;;;;;;;4234787;28;20044;-67
2024/03/22 03:48:21;;;;;;;26.77;24.05;;;;;;;;;;4234682;28;20072;-67
2024/03/22 03:50:22;;;;;;;70.57;25.70;;;;;;;;;;4234692;28;20161;-68
2024/03/22 03:52:22;;;;;;;24.88;23.02;;;;;;;;;;4234626;28;20044;-67
2024/03/22 03:54:23;;;;;;;31.00;24.10;;;;;;;;;;4244463;27;20053;-69
2024/03/22 03:56:23;;;;;;;25.52;23.83;;;;;;;;;;4242575;27;20071;-68
2024/03/22 03:58:24;;;;;;;27.15;25.58;;;;;;;;;;4234743;28;20036;-68
2024/03/22 04:00:24;;;;;;;26.50;25.58;;;;;;;;;;4234610;28;20047;-68
2024/03/22 04:02:25;;;;;;;25.13;23.98;;;;;;;;;;4234526;28;20047;-68
2024/03/22 04:04:26;;;;;;;56.97;24.80;;;;;;;;;;4234426;28;20096;-67
2024/03/22 04:06:26;;;;;;;26.45;24.95;;;;;;;;;;4234753;28;20039;-68
2024/03/22 04:08:27;;;;;;;25.25;22.25;;;;;;;;;;4233744;28;20174;-68
2024/03/22 04:10:27;;;;;;;28.33;26.15;;;;;;;;;;4231166;28;20039;-68
2024/03/22 04:12:29;;;;;;;28.40;26.45;;;;;;;;;;4231906;28;20054;-67
2024/03/22 04:14:29;;;;;;;61.92;27.73;;;;;;;;;;4231780;28;20051;-67
2024/03/22 04:16:30;;;;;;;58.33;27.15;;;;;;;;;;4231762;28;20070;-67
2024/03/22 04:18:30;;;;;;;26.73;24.63;;;;;;;;;;4231869;28;20126;-68
2024/03/22 04:20:31;;;;;;;43.55;25.40;;;;;;;;;;4231601;28;20074;-67
2024/03/22 04:22:31;;;;;;;45.00;26.13;;;;;;;;;;4231808;28;20439;-67
2024/03/22 04:24:32;;;;;;;27.33;23.70;;;;;;;;;;4231633;28;20031;-67
2024/03/22 04:26:32;;;;;;;45.90;24.27;;;;;;;;;;4231700;28;20043;-68
2024/03/22 04:28:33;;;;;;;44.35;25.95;;;;;;;;;;4231896;28;20127;-67
2024/03/22 04:30:34;;;;;;;27.17;25.75;;;;;;;;;;4231590;28;20031;-67
2024/03/22 04:32:34;;;;;;;34.13;24.10;;;;;;;;;;4231889;28;20370;-67
2024/03/22 04:34:35;;;;;;;31.33;25.80;;;;;;;;;;4231484;28;20039;-67
2024/03/22 04:36:35;;;;;;;41.40;23.17;;;;;;;;;;4231576;28;20434;-67
2024/03/22 04:38:36;;;;;;;52.78;26.75;;;;;;;;;;4231735;28;20098;-68
2024/03/22 04:40:37;;;;;;;27.85;25.02;;;;;;;;;;4231292;28;20069;-68
2024/03/22 04:42:37;;;;;;;29.13;26.27;;;;;;;;;;4231429;28;20127;-68
2024/03/22 04:44:38;;;;;;;28.50;25.45;;;;;;;;;;4231461;28;20479;-68
2024/03/22 04:46:38;;;;;;;30.75;26.83;;;;;;;;;;4231318;28;20039;-68
2024/03/22 04:48:39;;;;;;;50.28;27.25;;;;;;;;;;4231207;28;20038;-68
2024/03/22 04:50:40;;;;;;;28.35;26.73;;;;;;;;;;4241248;27;20116;-67
2024/03/22 04:52:40;;;;;;;184.98;34.72;;;;;;;;;;4238787;27;20044;-69
2024/03/22 04:54:41;;;;;;;126.57;31.00;;;;;;;;;;4231157;28;20110;-68
2024/03/22 04:56:41;;;;;;;275.77;38.33;;;;;;;;;;4231016;28;20427;-68
2024/03/22 04:58:42;;;;;;;206.27;36.50;;;;;;;;;;4231053;28;20192;-67
2024/03/22 05:00:43;;;;;;;170.38;33.67;;;;;;;;;;4231061;28;20047;-69
2024/03/22 05:02:44;;;;;;;78.43;32.17;;;;;;;;;;4230907;28;20032;-68
2024/03/22 05:04:44;;;;;;;109.65;31.92;;;;;;;;;;4230815;28;20135;-67
2024/03/22 05:06:46;;;;;;;57.97;31.45;;;;;;;;;;4230965;28;20392;-68
2024/03/22 05:08:47;;;;;;;31.75;29.35;;;;;;;;;;4231095;28;20067;-69
2024/03/22 05:10:48;;;;;;;36.05;34.05;;;;;;;;;;4230220;28;20485;-67
2024/03/22 05:12:48;;;;;;;33.78;31.77;;;;;;;;;;4224820;28;20039;-68
2024/03/22 05:14:49;;;;;;;35.70;33.38;;;;;;;;;;4226035;28;20454;-68
2024/03/22 05:16:50;;;;;;;37.67;35.25;;;;;;;;;;4230815;28;20043;-69
2024/03/22 05:18:50;;;;;;;38.47;36.22;;;;;;;;;;4229824;28;20044;-68
2024/03/22 05:20:51;;;;;;;36.70;34.67;;;;;;;;;;4230475;28;20082;-67
2024/03/22 05:22:52;;;;;;;36.05;34.22;;;;;;;;;;4230641;28;20039;-68
2024/03/22 05:24:53;;;;;;;34.60;32.50;;;;;;;;;;4230715;28;20093;-67
2024/03/22 05:26:53;;;;;;;37.40;35.30;;;;;;;;;;4230605;28;20509;-67
2024/03/22 05:28:54;;;;;;;33.55;31.85;;;;;;;;;;4230683;28;20122;-67
2024/03/22 05:30:54;;;;;;;36.25;34.47;;;;;;;;;;4230612;28;20039;-67
2024/03/22 05:32:55;;;;;;;37.10;34.70;;;;;;;;;;4230825;28;20134;-68
2024/03/22 05:34:56;;;;;;;38.55;36.13;;;;;;;;;;4229630;28;20070;-67
2024/03/22 05:36:56;;;;;;;41.95;38.65;;;;;;;;;;4230490;28;20031;-67
2024/03/22 05:38:57;;;;;;;39.45;36.72;;;;;;;;;;4230600;28;20054;-67
2024/03/22 05:40:58;;;;;;;37.70;35.45;;;;;;;;;;4230385;28;20042;-67
2024/03/22 05:42:58;;;;;;;35.72;33.40;;;;;;;;;;4230382;28;20032;-66
2024/03/22 05:44:59;;;;;;;42.42;39.03;;;;;;;;;;4230323;28;20089;-68
2024/03/22 05:47:00;;;;;;;43.90;40.60;;;;;;;;;;4223893;28;20052;-67
2024/03/22 05:49:00;;;;;;;43.38;39.80;;;;;;;;;;4237020;27;20042;-68
2024/03/22 05:51:01;;;;;;;41.65;38.67;;;;;;;;;;4230316;28;20425;-68
2024/03/22 05:53:01;;;;;;;38.63;36.15;;;;;;;;;;4230363;28;20093;-67
2024/03/22 05:55:02;;;;;;;38.40;35.92;;;;;;;;;;4223474;28;20032;-67
2024/03/22 05:57:04;;;;;;;40.95;38.25;;;;;;;;;;4230326;28;20043;-67
2024/03/22 05:59:05;;;;;;;37.42;34.65;;;;;;;;;;4230443;28;20036;-67
2024/03/22 06:01:06;;;;;;;37.55;35.00;;;;;;;;;;4213151;28;20040;-67
2024/03/22 06:03:06;;;;;;;38.05;35.55;;;;;;;;;;4229060;28;20561;-68
2024/03/22 06:05:07;;;;;;;41.47;38.25;;;;;;;;;;4230230;28;20136;-67
2024/03/22 06:07:08;;;;;;;38.10;35.70;;;;;;;;;;4229540;28;20070;-67
2024/03/22 06:09:11;;;;;;;33.97;31.63;;;;;;;;;;4229774;28;20036;-67
2024/03/22 06:11:11;;;;;;;32.83;30.83;;;;;;;;;;4229901;28;20051;-68
2024/03/22 06:13:12;;;;;;;48.03;43.80;;;;;;;;;;4229998;28;20044;-67
2024/03/22 06:15:13;;;;;;;58.55;33.45;;;;;;;;;;4229911;28;20069;-68
2024/03/22 06:17:13;;;;;;;30.73;28.80;;;;;;;;;;4230126;28;20047;-69
2024/03/22 06:19:14;;;;;;;32.38;30.80;;;;;;;;;;4229750;28;20078;-75
2024/03/22 06:21:15;;;;;;;30.90;29.27;;;;;;;;;;4222674;28;20051;-74
2024/03/22 06:23:16;;;;;;;35.00;33.10;;;;;;;;;;4212943;28;20119;-76
2024/03/22 06:25:16;;;;;;;44.42;40.88;;;;;;;;;;4212015;28;20543;-76
2024/03/22 06:27:17;;;;;;;37.08;34.60;;;;;;;;;;4221195;28;20521;-75
2024/03/22 06:29:18;;;;;;;38.90;36.53;;;;;;;;;;4223721;28;20110;-75
2024/03/22 06:31:19;;;;;;;43.15;39.80;;;;;;;;;;4228307;28;20114;-75
2024/03/22 06:33:20;;;;;;;42.78;39.58;;;;;;;;;;4227397;28;20031;-74
2024/03/22 06:35:20;;;;;;;37.58;34.88;;;;;;;;;;4211091;28;20032;-75
2024/03/22 06:37:21;;;;;;;39.20;36.20;;;;;;;;;;4212774;28;20055;-75
2024/03/22 06:39:22;;;;;;;35.20;32.97;;;;;;;;;;4229070;28;20047;-75
2024/03/22 06:41:23;;;;;;;37.92;35.53;;;;;;;;;;4229339;28;22011;-75
2024/03/22 06:43:23;;;;;;;33.30;31.50;;;;;;;;;;4229720;28;20032;-75
2024/03/22 06:45:24;;;;;;;34.97;32.78;;;;;;;;;;4229265;28;20469;-75
2024/03/22 06:47:24;;;;;;;36.72;34.30;;;;;;;;;;4229416;28;20135;-75
2024/03/22 06:49:25;;;;;;;34.35;32.45;;;;;;;;;;4229448;28;20039;-75
2024/03/22 06:51:26;;;;;;;36.20;33.85;;;;;;;;;;4229386;28;20040;-74
2024/03/22 06:53:27;;;;;;;34.45;32.20;;;;;;;;;;4229464;28;20040;-75
2024/03/22 06:55:27;;;;;;;34.97;32.50;;;;;;;;;;4229426;28;20490;-74
2024/03/22 06:57:28;;;;;;;35.63;33.00;;;;;;;;;;4229525;28;20058;-74
2024/03/22 06:59:29;;;;;;;32.55;30.60;;;;;;;;;;4234445;28;20069;-74
2024/03/22 07:01:29;;;;;;;32.38;30.38;;;;;;;;;;4246219;28;20063;-74
2024/03/22 07:03:30;;;;;;;35.90;33.33;;;;;;;;;;4246136;28;20097;-74
2024/03/22 07:05:30;;;;;;;38.00;35.20;;;;;;;;;;4246449;28;20038;-74
2024/03/22 07:07:31;;;;;;;35.33;32.45;;;;;;;;;;4246202;28;20071;-74
2024/03/22 07:09:35;;;;;;;34.17;31.77;;;;;;;;;;4246398;28;20035;-74
2024/03/22 07:11:36;;;;;;;33.40;30.90;;;;;;;;;;4246180;28;20402;-73
2024/03/22 07:13:36;;;;;;;29.92;27.67;;;;;;;;;;4246220;28;20410;-73
2024/03/22 07:15:37;;;;;;;28.45;26.08;;;;;;;;;;4246394;28;20401;-73
2024/03/22 07:17:38;;;;;;;29.55;27.05;;;;;;;;;;4246215;28;20043;-73
2024/03/22 07:19:38;;;;;;;29.77;27.20;;;;;;;;;;4229204;28;20040;-73
2024/03/22 07:21:39;;;;;;;26.98;24.63;;;;;;;;;;4246184;28;20535;-72
2024/03/22 07:23:39;;;;;;;26.30;23.90;;;;;;;;;;4246050;28;20042;-73
2024/03/22 07:25:42;;;;;;;23.60;21.65;;;;;;;;;;4246081;28;20081;-72
2024/03/22 07:27:43;;;;;;;27.02;24.48;;;;;;;;;;4246340;28;20418;-72
2024/03/22 07:29:44;;;;;;;21.13;19.20;;;;;;;;;;4244462;28;20112;-72
2024/03/22 07:31:44;;;;;;;20.55;18.77;;;;;;;;;;4229262;28;20059;-72
2024/03/22 07:33:45;;;;;;;22.42;20.23;;;;;;;;;;4229090;28;20040;-72
2024/03/22 07:35:46;;;;;;;19.65;18.05;;;;;;;;;;4229180;28;20066;-72
2024/03/22 07:37:46;;;;;;;19.85;18.17;;;;;;;;;;4229031;28;20067;-72
2024/03/22 07:39:47;;;;;;;24.38;21.98;;;;;;;;;;4229138;28;20127;-71
2024/03/22 07:41:47;;;;;;;22.30;20.13;;;;;;;;;;4228841;28;20093;-71
2024/03/22 07:43:48;;;;;;;20.48;18.77;;;;;;;;;;4229077;28;20054;-71
2024/03/22 07:45:49;;;;;;;19.13;17.50;;;;;;;;;;4232110;28;20122;-72
2024/03/22 07:47:49;;;;;;;19.55;17.58;;;;;;;;;;4232233;28;20080;-72
2024/03/22 07:49:50;;;;;;;17.67;16.10;;;;;;;;;;4232416;28;20118;-73
2024/03/22 07:51:52;;;;;;;17.08;15.70;;;;;;;;;;4232138;28;20040;-71
2024/03/22 07:53:53;;;;;;;28.48;22.17;;;;;;;;;;4232406;28;20035;-71
2024/03/22 07:55:54;;;;;;;26.00;21.50;;;;;;;;;;4238712;27;20038;-72
2024/03/22 07:57:54;;;;;;;18.17;16.38;;;;;;;;;;4249156;27;20039;-72
2024/03/22 07:59:55;;;;;;;19.02;17.42;;;;;;;;;;4249121;27;20035;-71
2024/03/22 08:01:57;;;;;;;18.00;16.42;;;;;;;;;;4248875;27;20134;-72
2024/03/22 08:03:57;;;;;;;16.98;15.70;;;;;;;;;;4248563;27;20536;-71
2024/03/22 08:05:58;;;;;;;14.80;13.73;;;;;;;;;;4248979;27;20036;-71
2024/03/22 08:07:58;;;;;;;17.20;15.82;;;;;;;;;;4248954;27;20035;-71
2024/03/22 08:10:01;;;;;;;16.48;15.00;;;;;;;;;;4248723;27;20039;-71
2024/03/22 08:12:02;;;;;;;15.85;14.40;;;;;;;;;;4248747;27;20111;-71
2024/03/22 08:14:03;;;;;;;14.98;13.90;;;;;;;;;;4248823;27;20047;-71
2024/03/22 08:16:04;;;;;;;14.45;13.50;;;;;;;;;;4248792;27;20138;-71
2024/03/22 08:18:04;;;;;;;14.77;13.60;;;;;;;;;;4248757;27;20035;-71
2024/03/22 08:20:05;;;;;;;14.38;13.15;;;;;;;;;;4248723;27;20058;-71
2024/03/22 08:22:06;;;;;;;13.35;12.18;;;;;;;;;;4248582;27;20088;-71
2024/03/22 08:24:06;;;;;;;13.13;11.98;;;;;;;;;;4248754;27;20042;-71
2024/03/22 08:26:07;;;;;;;10.80;10.20;;;;;;;;;;4245739;27;20512;-71
2024/03/22 08:28:08;;;;;;;12.00;11.30;;;;;;;;;;4231598;28;20150;-71
2024/03/22 08:30:09;;;;;;;10.30;9.55;;;;;;;;;;4231285;28;20046;-71
2024/03/22 08:32:10;;;;;;;9.75;9.25;;;;;;;;;;4231491;28;20566;-71
2024/03/22 08:34:10;;;;;;;10.68;10.07;;;;;;;;;;4214447;28;20063;-71
2024/03/22 08:36:11;;;;;;;9.65;9.13;;;;;;;;;;4231490;28;20039;-71
2024/03/22 08:38:14;;;;;;;10.63;10.13;;;;;;;;;;4231242;28;20570;-71
2024/03/22 08:40:15;;;;;;;10.95;10.13;;;;;;;;;;4231479;28;20093;-71
2024/03/22 08:42:15;;;;;;;11.13;10.57;;;;;;;;;;4231325;28;20123;-71
2024/03/22 08:44:16;;;;;;;9.32;9.02;;;;;;;;;;4231392;28;20494;-71
2024/03/22 08:46:16;;;;;;;8.00;7.80;;;;;;;;;;4231319;28;20467;-71
2024/03/22 08:48:17;;;;;;;7.63;7.30;;;;;;;;;;4231310;28;20051;-70
2024/03/22 08:50:18;;;;;;;6.07;5.88;;;;;;;;;;4231264;28;20035;-71
2024/03/22 08:52:18;;;;;;;6.53;6.32;;;;;;;;;;4223144;28;20036;-71
2024/03/22 08:54:19;;;;;;;6.70;6.40;;;;;;;;;;4214393;28;20584;-71
2024/03/22 08:56:19;;;;;;;6.15;6.00;;;;;;;;;;4213634;28;20500;-71
2024/03/22 08:58:20;;;;;;;5.78;5.60;;;;;;;;;;4224994;28;20086;-71
2024/03/22 09:00:23;;;;;;;5.75;5.55;;;;;;;;;;4231241;28;20039;-70
2024/03/22 09:02:24;;;;;;;5.50;5.10;;;;;;;;;;4231006;28;20036;-71
2024/03/22 09:04:25;;;;;;;5.15;4.95;;;;;;;;;;4213984;28;20389;-71
2024/03/22 09:06:25;;;;;;;4.55;4.45;;;;;;;;;;4231160;28;20036;-70
2024/03/22 09:08:27;;;;;;;5.47;5.30;;;;;;;;;;4230805;28;20062;-71
2024/03/22 09:10:28;;;;;;;5.18;4.68;;;;;;;;;;4230830;28;20495;-70
2024/03/22 09:12:28;;;;;;;5.18;4.97;;;;;;;;;;4213689;28;20044;-70
2024/03/22 09:14:29;;;;;;;4.63;4.35;;;;;;;;;;4230663;28;20515;-70
2024/03/22 09:16:30;;;;;;;4.45;4.35;;;;;;;;;;4230699;28;20047;-70
2024/03/22 09:18:31;;;;;;;4.50;4.40;;;;;;;;;;4230706;28;20120;-70
2024/03/22 09:20:32;;;;;;;4.57;4.47;;;;;;;;;;4230613;28;20079;-70
2024/03/22 09:22:32;;;;;;;5.07;4.75;;;;;;;;;;4230544;28;20031;-70
2024/03/22 09:24:33;;;;;;;5.13;5.03;;;;;;;;;;4230524;28;20221;-70
2024/03/22 09:26:33;;;;;;;3.97;3.88;;;;;;;;;;4230464;28;20047;-70
2024/03/22 09:28:34;;;;;;;4.85;4.75;;;;;;;;;;4230475;28;20031;-70
2024/03/22 09:30:37;;;;;;;3.88;3.78;;;;;;;;;;4230236;28;20040;-71
2024/03/22 09:32:38;;;;;;;5.07;4.80;;;;;;;;;;4230613;28;20047;-70
2024/03/22 09:34:40;;;;;;;4.05;3.85;;;;;;;;;;4230412;28;20043;-70
2024/03/22 09:36:40;;;;;;;5.40;5.20;;;;;;;;;;4230505;28;20050;-70
2024/03/22 09:38:41;;;;;;;5.63;5.30;;;;;;;;;;4230395;28;20047;-70
2024/03/22 09:40:41;;;;;;;5.20;5.00;;;;;;;;;;4230443;28;20135;-70
2024/03/22 09:42:43;;;;;;;4.78;4.63;;;;;;;;;;4230374;28;20062;-70
2024/03/22 09:44:47;;;;;;;5.28;4.97;;;;;;;;;;4230369;28;20048;-71
2024/03/22 09:46:49;;;;;;;4.85;4.72;;;;;;;;;;4230321;28;20039;-71
2024/03/22 09:48:49;;;;;;;4.32;4.13;;;;;;;;;;4240452;27;20035;-71
2024/03/22 09:50:50;;;;;;;4.18;3.83;;;;;;;;;;4247156;27;20073;-71
2024/03/22 09:52:51;;;;;;;4.55;4.45;;;;;;;;;;4247296;27;20046;-70
2024/03/22 09:54:52;;;;;;;4.38;3.95;;;;;;;;;;4247281;27;20051;-71
2024/03/22 09:56:53;;;;;;;3.67;3.55;;;;;;;;;;4247484;27;20097;-70
2024/03/22 09:58:54;;;;;;;3.75;3.65;;;;;;;;;;4247186;27;20100;-71
2024/03/22 10:01:00;;;;;;;8.25;4.38;;;;;;;;;;4247231;27;20043;-71
2024/03/22 10:03:01;;;;;;;4.25;3.95;;;;;;;;;;4246972;27;20046;-71
2024/03/22 10:05:04;;;;;;;2.25;2.25;;;;;;;;;;4247078;27;20510;-71
2024/03/22 10:07:05;;;;;;;2.78;2.75;;;;;;;;;;4246324;27;20039;-70
2024/03/22 10:09:05;;;;;;;3.13;3.03;;;;;;;;;;4246874;27;20118;-70
2024/03/22 10:11:06;;;;;;;3.05;2.95;;;;;;;;;;4246930;27;20035;-71
2024/03/22 10:13:06;;;;;;;3.13;3.03;;;;;;;;;;4246895;27;20411;-70
2024/03/22 10:15:12;;;;;;;2.70;2.60;;;;;;;;;;4247062;27;20043;-71
2024/03/22 10:17:13;;;;;;;2.72;2.72;;;;;;;;;;4246899;27;20406;-72
2024/03/22 10:19:13;;;;;;;2.72;2.55;;;;;;;;;;4238901;27;20126;-73
2024/03/22 10:21:18;;;;;;;3.05;2.95;;;;;;;;;;4228633;28;20120;-71
2024/03/22 10:23:20;;;;;;;2.75;2.75;;;;;;;;;;4229578;28;20043;-70
2024/03/22 10:25:21;;;;;;;2.55;2.55;;;;;;;;;;4229735;28;20036;-71
2024/03/22 10:27:21;;;;;;;2.30;2.30;;;;;;;;;;4212842;28;20056;-71
2024/03/22 10:29:22;;;;;;;2.55;2.42;;;;;;;;;;4229506;28;20114;-72
2024/03/22 10:31:22;;;;;;;3.30;2.17;;;;;;;;;;4229565;28;20051;-70
2024/03/22 10:33:23;;;;;;;2.33;2.33;;;;;;;;;;4229732;28;20040;-72
2024/03/22 10:35:24;;;;;;;2.10;2.00;;;;;;;;;;4229606;28;20043;-73
2024/03/22 10:37:24;;;;;;;2.05;2.05;;;;;;;;;;4229606;28;20035;-71
2024/03/22 10:39:26;;;;;;;2.38;2.28;;;;;;;;;;4229627;28;20066;-71
2024/03/22 10:41:26;;;;;;;1.90;1.85;;;;;;;;;;4229598;28;20411;-71
2024/03/22 10:43:27;;;;;;;2.38;1.88;;;;;;;;;;4229607;28;20065;-73
2024/03/22 10:45:29;;;;;;;2.35;2.35;;;;;;;;;;4242986;27;20078;-70
2024/03/22 10:47:30;;;;;;;2.58;2.58;;;;;;;;;;4246510;27;20050;-70
2024/03/22 10:49:33;;;;;;;2.80;2.70;;;;;;;;;;4246523;27;20043;-70
2024/03/22 10:51:34;;;;;;;2.90;2.80;;;;;;;;;;4239523;28;20054;-71
2024/03/22 10:53:35;;;;;;;2.65;2.55;;;;;;;;;;4229193;28;20070;-71
2024/03/22 10:55:37;;;;;;;2.35;2.25;;;;;;;;;;4229719;28;20036;-73
2024/03/22 10:57:38;;;;;;;2.20;2.20;;;;;;;;;;4229295;28;20043;-71
2024/03/22 10:59:40;;;;;;;2.08;1.98;;;;;;;;;;4229521;28;20044;-71
2024/03/22 11:01:44;;;;;;;1.90;1.80;;;;;;;;;;4229311;28;20052;-71
2024/03/22 11:03:45;;;;;;;2.70;2.60;;;;;;;;;;4227113;28;20044;-71
2024/03/22 11:05:52;;;;;;;2.53;2.42;;;;;;;;;;4223565;28;20040;-71
2024/03/22 11:07:59;;;;;;;2.40;2.40;;;;;;;;;;4218997;28;20044;-72
2024/03/22 11:10:05;;;;;;;2.33;2.30;;;;;;;;;;4211930;28;20451;-71
2024/03/22 11:12:05;;;;;;;2.15;2.05;;;;;;;;;;4228870;28;20461;-70
2024/03/22 11:14:06;;;;;;;2.28;2.17;;;;;;;;;;4228237;28;20035;-71
2024/03/22 11:16:09;;;;;;;1.85;1.85;;;;;;;;;;4228188;28;20070;-71
2024/03/22 11:18:10;;;;;;;2.65;2.00;;;;;;;;;;4228888;28;20070;-71
2024/03/22 11:20:11;;;;;;;2.00;1.92;;;;;;;;;;4232281;28;20036;-71
2024/03/22 11:22:13;;;;;;;1.70;1.60;;;;;;;;;;4215427;28;20048;-71
2024/03/22 11:24:13;;;;;;;2.00;2.00;;;;;;;;;;4232795;28;20430;-71
2024/03/22 11:26:14;;;;;;;2.13;2.03;;;;;;;;;;4232535;28;20063;-71
2024/03/22 11:28:14;;;;;;;1.98;1.98;;;;;;;;;;4232380;28;20130;-71
2024/03/22 11:30:15;;;;;;;1.70;1.70;;;;;;;;;;4231814;28;20576;-71
2024/03/22 11:32:16;;;;;;;2.20;2.20;;;;;;;;;;4232483;28;20610;-71
2024/03/22 11:34:17;;;;;;;1.80;1.70;;;;;;;;;;4232281;28;20039;-70
2024/03/22 11:36:17;;;;;;;2.65;1.95;;;;;;;;;;4232500;28;20052;-70
2024/03/22 11:38:18;;;;;;;2.00;2.00;;;;;;;;;;4215413;28;20102;-70
2024/03/22 11:40:19;;;;;;;1.90;1.90;;;;;;;;;;4233386;27;20487;-71
2024/03/22 11:42:19;;;;;;;2.08;2.08;;;;;;;;;;4232338;28;20040;-71
2024/03/22 11:44:21;;;;;;;1.83;1.67;;;;;;;;;;4232627;28;20045;-71
2024/03/22 11:46:22;;;;;;;1.73;1.73;;;;;;;;;;4232271;28;20109;-71
2024/03/22 11:48:23;;;;;;;1.90;1.80;;;;;;;;;;4232519;28;20040;-71